Time;durP1;ratioP1;P1;durP2;ratioP2;P2;SDS_P1;SDS_P2;PMS_P1;PMS_P2;Temp;Humidity;BMP_temperature;BMP_pressure;BME280_temperature;BME280_humidity;BME280_pressure;Samples;Min_cycle;Max_cycle;Signal;HPM_P1;HPM_P2
2023/03/27 00:01:05;;;;;;;7.80;2.70;;;;;;;;;;106956;1253;24215;-82
2023/03/27 00:03:38;;;;;;;8.50;2.90;;;;;;;;;;106924;1276;25223;-83
2023/03/27 00:06:33;;;;;;;7.80;2.70;;;;;;;;;;106963;1276;24788;-83
2023/03/27 00:09:05;;;;;;;9.30;3.10;;;;;;;;;;107010;1276;22571;-84
2023/03/27 00:11:57;;;;;;;;;;;;;;;;;;;;;
2023/03/27 00:14:35;;;;;;;8.30;3.20;;;;;;;;;;107047;1276;22530;-86
2023/03/27 00:17:06;;;;;;;9.70;3.60;;;;;;;;;;107164;1276;24644;-82
2023/03/27 00:19:36;;;;;;;9.60;3.20;;;;;;;;;;106937;1275;22523;-83
2023/03/27 00:22:24;;;;;;;7.70;2.80;;;;;;;;;;107125;1256;25268;-83
2023/03/27 00:26:00;;;;;;;8.10;3.10;;;;;;;;;;106984;1275;22576;-84
2023/03/27 00:28:28;;;;;;;9.00;3.50;;;;;;;;;;107080;1276;22520;-84
2023/03/27 00:30:57;;;;;;;8.70;3.60;;;;;;;;;;106978;1276;22758;-81
2023/03/27 00:34:06;;;;;;;8.50;3.40;;;;;;;;;;106939;1262;22787;-85
2023/03/27 00:36:34;;;;;;;9.50;3.70;;;;;;;;;;106946;1276;25558;-85
2023/03/27 00:39:15;;;;;;;8.90;3.30;;;;;;;;;;106952;1276;22544;-81
2023/03/27 00:45:30;;;;;;;9.20;3.70;;;;;;;;;;107120;1276;25376;-84
2023/03/27 00:48:03;;;;;;;9.80;4.30;;;;;;;;;;107067;1276;22599;-82
2023/03/27 00:50:36;;;;;;;10.70;4.60;;;;;;;;;;106948;1276;23587;-84
2023/03/27 00:53:44;;;;;;;9.50;3.50;;;;;;;;;;106987;1276;22630;-86
2023/03/27 00:56:32;;;;;;;9.40;3.80;;;;;;;;;;106839;1276;22618;-81
2023/03/27 00:59:18;;;;;;;10.60;4.30;;;;;;;;;;106881;1276;26557;-82
2023/03/27 01:02:10;;;;;;;12.40;5.10;;;;;;;;;;107018;1252;25457;-82
2023/03/27 01:04:38;;;;;;;15.80;5.80;;;;;;;;;;107047;1276;22495;-80
2023/03/27 01:07:13;;;;;;;12.80;5.00;;;;;;;;;;107183;1276;23919;-83
2023/03/27 01:10:19;;;;;;;10.90;5.00;;;;;;;;;;107442;1275;22460;-80
2023/03/27 01:13:29;;;;;;;10.90;4.30;;;;;;;;;;107061;1259;22539;-83
2023/03/27 01:16:23;;;;;;;8.30;3.40;;;;;;;;;;106949;1276;25271;-80
2023/03/27 01:18:58;;;;;;;10.30;4.10;;;;;;;;;;107009;1277;22507;-81
2023/03/27 01:22:13;;;;;;;8.90;4.10;;;;;;;;;;106933;1276;26500;-81
2023/03/27 01:25:19;;;;;;;9.80;4.00;;;;;;;;;;107343;1275;25213;-83
2023/03/27 01:27:52;;;;;;;8.10;3.60;;;;;;;;;;106995;1275;22517;-80
2023/03/27 01:30:26;;;;;;;10.40;4.20;;;;;;;;;;106971;1275;25420;-81
2023/03/27 01:33:41;;;;;;;;;;;;;;;;;;;;;
2023/03/27 01:36:43;;;;;;;8.50;3.70;;;;;;;;;;106518;1282;22534;-81
2023/03/27 01:39:31;;;;;;;10.30;4.30;;;;;;;;;;106502;1264;22933;-80
2023/03/27 01:42:51;;;;;;;9.10;3.90;;;;;;;;;;106449;1282;22527;-81
2023/03/27 01:46:07;;;;;;;10.80;4.20;;;;;;;;;;106434;1265;24235;-87
2023/03/27 01:49:08;;;;;;;10.30;4.40;;;;;;;;;;106424;1285;22998;-86
2023/03/27 01:52:10;;;;;;;;;;;;;;;;;;;;;
2023/03/27 01:55:02;;;;;;;;;;;;;;;;;;;;;
2023/03/27 01:57:54;;;;;;;8.80;3.80;;;;;;;;;;106483;1285;22557;-84
2023/03/27 02:01:27;;;;;;;9.70;4.40;;;;;;;;;;106488;1285;25347;-81
2023/03/27 02:04:17;;;;;;;;;;;;;;;;;;;;;
2023/03/27 02:06:57;;;;;;;9.70;3.20;;;;;;;;;;105648;1295;22777;-81
2023/03/27 02:10:05;;;;;;;9.10;3.80;;;;;;;;;;105604;1295;25364;-84
2023/03/27 02:13:12;;;;;;;;;;;;;;;;;;;;;
2023/03/27 02:16:16;;;;;;;10.90;3.70;;;;;;;;;;105696;1280;22560;-84
2023/03/27 02:19:24;;;;;;;11.50;3.50;;;;;;;;;;105250;1296;25334;-86
2023/03/27 02:22:32;;;;;;;11.20;3.90;;;;;;;;;;105369;1292;22634;-85
2023/03/27 02:25:33;;;;;;;8.30;3.30;;;;;;;;;;105994;1274;24423;-86
2023/03/27 02:29:25;;;;;;;11.00;3.70;;;;;;;;;;105905;1291;24386;-80
2023/03/27 02:32:00;;;;;;;10.10;4.10;;;;;;;;;;105584;1297;22730;-83
2023/03/27 02:34:53;;;;;;;10.80;3.80;;;;;;;;;;105295;1274;24699;-85
2023/03/27 02:41:36;;;;;;;9.10;3.80;;;;;;;;;;101557;1297;25511;-83
2023/03/27 02:44:56;;;;;;;10.90;3.50;;;;;;;;;;105481;1297;22566;-82
2023/03/27 02:48:08;;;;;;;;;;;;;;;;;;;;;
2023/03/27 02:58:46;;;;;;;18.10;7.20;;;;;;;;;;105709;1276;22555;-86
2023/03/27 03:02:25;;;;;;;15.10;7.00;;;;;;;;;;105720;1296;23946;-88
2023/03/27 03:04:59;;;;;;;14.10;7.20;;;;;;;;;;105723;1296;25551;-82
2023/03/27 03:08:20;;;;;;;16.30;6.60;;;;;;;;;;105801;1288;23748;-85
2023/03/27 03:11:00;;;;;;;;;;;;;;;;;;;;;
2023/03/27 03:14:20;;;;;;;;;;;;;;;;;;;;;
2023/03/27 03:24:16;;;;;;;17.50;4.90;;;;;;;;;;106453;1285;23925;-86
2023/03/27 03:26:48;;;;;;;15.50;5.40;;;;;;;;;;106374;1259;24251;-85
2023/03/27 03:29:43;;;;;;;19.40;5.70;;;;;;;;;;106517;1281;22541;-83
2023/03/27 03:32:56;;;;;;;;;;;;;;;;;;;;;
2023/03/27 03:35:49;;;;;;;14.20;4.30;;;;;;;;;;106689;1281;22530;-85
2023/03/27 03:38:41;;;;;;;18.60;5.50;;;;;;;;;;106633;1273;25186;-88
2023/03/27 03:41:44;;;;;;;;;;;;;;;;;;;;;
2023/03/27 03:45:04;;;;;;;;;;;;;;;;;;;;;
2023/03/27 03:47:51;;;;;;;13.20;3.00;;;;;;;;;;106607;1263;25339;-81
2023/03/27 03:50:21;;;;;;;15.80;3.50;;;;;;;;;;106580;1281;23802;-83
2023/03/27 03:56:48;;;;;;;12.80;3.20;;;;;;;;;;106425;1262;22559;-89
2023/03/27 03:59:46;;;;;;;11.60;3.20;;;;;;;;;;106547;1277;22537;-82
2023/03/27 04:03:10;;;;;;;;;;;;;;;;;;;;;
2023/03/27 04:09:56;;;;;;;14.40;3.20;;;;;;;;;;106360;1274;24672;-83
2023/03/27 04:13:19;;;;;;;;;;;;;;;;;;;;;
2023/03/27 04:16:06;;;;;;;;;;;;;;;;;;;;;
2023/03/27 04:18:52;;;;;;;;;;;;;;;;;;;;;
2023/03/27 04:21:25;;;;;;;10.80;2.50;;;;;;;;;;106475;1284;22769;-86
2023/03/27 04:24:35;;;;;;;;;;;;;;;;;;;;;
2023/03/27 04:27:50;;;;;;;9.10;2.10;;;;;;;;;;106455;1284;25348;-87
2023/03/27 04:30:52;;;;;;;12.60;2.70;;;;;;;;;;106468;1276;22561;-85
2023/03/27 04:33:51;;;;;;;8.50;2.30;;;;;;;;;;106592;1276;25503;-83
2023/03/27 04:36:57;;;;;;;11.50;2.40;;;;;;;;;;106677;1279;24174;-87
2023/03/27 04:39:59;;;;;;;14.70;3.10;;;;;;;;;;106950;1263;25467;-86
2023/03/27 04:43:38;;;;;;;;;;;;;;;;;;;;;
2023/03/27 04:46:44;;;;;;;;;;;;;;;;;;;;;
2023/03/27 04:49:48;;;;;;;;;;;;;;;;;;;;;
2023/03/27 04:52:48;;;;;;;;;;;;;;;;;;;;;
2023/03/27 04:59:44;;;;;;;8.50;2.40;;;;;;;;;;106445;1259;24463;-89
2023/03/27 05:03:09;;;;;;;7.00;2.10;;;;;;;;;;106517;1283;25257;-81
2023/03/27 05:06:50;;;;;;;7.40;2.30;;;;;;;;;;106422;1283;25292;-88
2023/03/27 05:09:17;;;;;;;6.80;2.70;;;;;;;;;;106627;1276;22629;-84
2023/03/27 05:11:58;;;;;;;10.70;4.00;;;;;;;;;;106561;1281;22899;-83
2023/03/27 05:15:01;;;;;;;9.50;3.80;;;;;;;;;;106642;1281;22539;-86
2023/03/27 05:18:04;;;;;;;9.70;4.90;;;;;;;;;;106431;1278;22635;-82
2023/03/27 05:21:15;;;;;;;13.50;6.20;;;;;;;;;;106588;1273;25335;-83
2023/03/27 05:24:02;;;;;;;14.70;6.40;;;;;;;;;;106648;1282;22533;-83
2023/03/27 05:27:13;;;;;;;;;;;;;;;;;;;;;
2023/03/27 05:30:31;;;;;;;9.30;4.10;;;;;;;;;;106436;1283;24229;-82
2023/03/27 05:33:17;;;;;;;9.50;3.70;;;;;;;;;;106147;1277;22609;-78
2023/03/27 05:36:48;;;;;;;;;;;;;;;;;;;;;
2023/03/27 05:40:07;;;;;;;8.70;4.40;;;;;;;;;;106230;1279;22545;-81
2023/03/27 05:43:26;;;;;;;;;;;;;;;;;;;;;
2023/03/27 05:46:43;;;;;;;;;;;;;;;;;;;;;
2023/03/27 05:50:09;;;;;;;;;;;;;;;;;;;;;
2023/03/27 05:53:21;;;;;;;7.80;3.60;;;;;;;;;;106363;1276;22648;-83
2023/03/27 05:56:54;;;;;;;8.70;3.70;;;;;;;;;;106250;1286;24204;-83
2023/03/27 05:59:34;;;;;;;;;;;;;;;;;;;;;
2023/03/27 06:06:10;;;;;;;8.60;3.10;;;;;;;;;;106095;1287;26502;-81
2023/03/27 06:09:53;;;;;;;7.40;2.70;;;;;;;;;;106190;1287;22602;-80
2023/03/27 06:13:03;;;;;;;10.80;4.10;;;;;;;;;;106985;1257;22521;-83
2023/03/27 06:15:50;;;;;;;9.50;4.40;;;;;;;;;;107208;1274;21727;-83
2023/03/27 06:19:17;;;;;;;;;;;;;;;;;;;;;
2023/03/27 06:22:27;;;;;;;;;;;;;;;;;;;;;
2023/03/27 06:25:31;;;;;;;6.70;2.20;;;;;;;;;;106702;1281;25324;-82
2023/03/27 06:28:59;;;;;;;9.10;2.90;;;;;;;;;;106589;1281;27328;-82
2023/03/27 06:32:01;;;;;;;;;;;;;;;;;;;;;
2023/03/27 06:35:13;;;;;;;9.00;3.10;;;;;;;;;;106741;1264;22520;-81
2023/03/27 06:38:23;;;;;;;;;;;;;;;;;;;;;
2023/03/27 06:41:04;;;;;;;7.50;2.50;;;;;;;;;;106581;1280;22535;-85
2023/03/27 06:44:16;;;;;;;7.20;2.60;;;;;;;;;;106663;1262;22536;-83
2023/03/27 06:47:34;;;;;;;7.00;2.40;;;;;;;;;;106559;1281;22495;-84
2023/03/27 06:50:43;;;;;;;6.40;2.40;;;;;;;;;;106675;1281;25384;-81
2023/03/27 06:58:56;;;;;;;7.50;2.70;;;;;;;;;;104076;1310;544964;-81
2023/03/27 07:01:33;;;;;;;7.60;2.30;;;;;;;;;;106070;1286;22502;-87
2023/03/27 07:05:21;;;;;;;6.80;2.40;;;;;;;;;;105862;1292;25519;-82
2023/03/27 07:08:20;;;;;;;7.10;2.40;;;;;;;;;;105945;1269;24233;-82
2023/03/27 07:10:59;;;;;;;6.60;2.20;;;;;;;;;;106328;1285;25350;-80
2023/03/27 07:14:07;;;;;;;7.30;2.30;;;;;;;;;;102802;1283;25366;-80
2023/03/27 07:16:47;;;;;;;7.20;2.80;;;;;;;;;;106496;1283;25246;-86
2023/03/27 07:20:05;;;;;;;7.90;2.40;;;;;;;;;;106308;1264;26600;-80
2023/03/27 07:22:25;;;;;;;6.30;2.10;;;;;;;;;;106219;1284;24251;-81
2023/03/27 07:29:04;;;;;;;;;;;;;;;;;;;;;
2023/03/27 07:31:43;;;;;;;8.10;2.10;;;;;;;;;;106418;1284;25317;-84
2023/03/27 07:37:47;;;;;;;8.30;2.70;;;;;;;;;;106414;1284;22609;-81
2023/03/27 07:40:49;;;;;;;6.80;2.50;;;;;;;;;;106204;1284;25400;-87
2023/03/27 07:43:47;;;;;;;6.50;2.40;;;;;;;;;;106436;1284;22530;-80
2023/03/27 07:46:40;;;;;;;9.00;2.70;;;;;;;;;;106529;1284;22526;-81
2023/03/27 07:49:32;;;;;;;6.60;2.60;;;;;;;;;;106523;1262;25471;-82
2023/03/27 07:52:42;;;;;;;5.80;2.20;;;;;;;;;;106377;1284;25371;-80
2023/03/27 07:55:52;;;;;;;;;;;;;;;;;;;;;
2023/03/27 07:59:10;;;;;;;7.40;2.40;;;;;;;;;;106483;1284;25319;-83
2023/03/27 08:01:47;;;;;;;8.40;2.30;;;;;;;;;;106449;1284;26502;-83
2023/03/27 08:08:43;;;;;;;6.20;2.20;;;;;;;;;;106422;1284;22533;-82
2023/03/27 08:18:16;;;;;;;;;;;;;;;;;;;;;
2023/03/27 08:22:01;;;;;;;3.80;1.20;;;;;;;;;;106471;1283;23924;-83
2023/03/27 08:25:04;;;;;;;6.70;2.00;;;;;;;;;;106543;1283;24422;-84
2023/03/27 08:28:04;;;;;;;;;;;;;;;;;;;;;
2023/03/27 08:31:54;;;;;;;9.60;2.50;;;;;;;;;;106070;1271;22693;-80
2023/03/27 08:34:50;;;;;;;9.20;2.90;;;;;;;;;;105992;1289;22622;-78
2023/03/27 08:38:00;;;;;;;7.60;2.20;;;;;;;;;;106093;1289;25253;-80
2023/03/27 08:44:35;;;;;;;5.60;1.70;;;;;;;;;;106041;1288;25488;-78
2023/03/27 08:47:42;;;;;;;7.40;2.00;;;;;;;;;;106102;1288;24385;-80
2023/03/27 08:51:03;;;;;;;;;;;;;;;;;;;;;
2023/03/27 08:54:56;;;;;;;15.30;5.10;;;;;;;;;;106095;1288;24205;-79
2023/03/27 08:57:31;;;;;;;8.40;2.10;;;;;;;;;;106083;1289;24235;-80
2023/03/27 09:00:50;;;;;;;;;;;;;;;;;;;;;
2023/03/27 09:03:57;;;;;;;8.50;2.80;;;;;;;;;;105789;1276;24372;-78
2023/03/27 09:07:42;;;;;;;8.10;2.60;;;;;;;;;;105796;1295;23485;-78
2023/03/27 09:10:37;;;;;;;16.20;5.30;;;;;;;;;;105661;1297;22543;-83
2023/03/27 09:13:51;;;;;;;;;;;;;;;;;;;;;
2023/03/27 09:16:47;;;;;;;10.60;3.30;;;;;;;;;;105661;1293;24268;-82
2023/03/27 09:20:30;;;;;;;8.80;3.00;;;;;;;;;;105661;1296;25295;-81
2023/03/27 09:23:02;;;;;;;11.20;3.00;;;;;;;;;;108547;1280;22156;-75
2023/03/27 09:26:09;;;;;;;9.00;3.40;;;;;;;;;;108554;1301;22038;-76
2023/03/27 09:29:20;;;;;;;7.90;2.90;;;;;;;;;;108978;1295;22919;-76
2023/03/27 09:31:49;;;;;;;7.70;3.10;;;;;;;;;;108979;1295;22409;-76
2023/03/27 09:34:29;;;;;;;8.70;2.30;;;;;;;;;;108930;1279;22135;-76
2023/03/27 09:36:59;;;;;;;7.20;2.40;;;;;;;;;;108922;1295;22207;-76
2023/03/27 09:39:31;;;;;;;8.90;2.80;;;;;;;;;;108984;1292;22932;-77
2023/03/27 09:42:36;;;;;;;8.50;3.30;;;;;;;;;;109423;1267;23138;-76
2023/03/27 09:45:32;;;;;;;10.30;3.00;;;;;;;;;;109506;1290;22196;-77
2023/03/27 09:48:03;;;;;;;10.60;3.30;;;;;;;;;;109896;1284;22140;-76
2023/03/27 09:50:45;;;;;;;9.00;3.30;;;;;;;;;;109804;1284;22224;-76
2023/03/27 09:53:34;;;;;;;10.90;3.00;;;;;;;;;;109988;1265;22430;-76
2023/03/27 09:56:22;;;;;;;10.70;2.30;;;;;;;;;;109913;1284;22151;-76
2023/03/27 09:59:18;;;;;;;14.30;4.40;;;;;;;;;;110215;1272;22225;-76
2023/03/27 10:01:52;;;;;;;10.60;3.20;;;;;;;;;;110482;1276;21958;-77
2023/03/27 10:04:42;;;;;;;8.00;2.00;;;;;;;;;;110384;1258;22421;-75
2023/03/27 10:07:21;;;;;;;9.10;2.50;;;;;;;;;;110350;1277;22167;-76
2023/03/27 10:10:20;;;;;;;8.90;2.10;;;;;;;;;;110224;1277;22289;-76
2023/03/27 10:13:17;;;;;;;6.50;1.80;;;;;;;;;;110453;1253;22214;-77
2023/03/27 10:15:57;;;;;;;7.60;2.10;;;;;;;;;;110520;1276;22099;-76
2023/03/27 10:18:29;;;;;;;6.60;2.30;;;;;;;;;;110360;1276;22235;-76
2023/03/27 10:21:09;;;;;;;7.30;2.10;;;;;;;;;;110468;1276;22161;-76
2023/03/27 10:23:51;;;;;;;8.30;2.40;;;;;;;;;;110478;1259;22111;-75
2023/03/27 10:26:26;;;;;;;6.00;2.10;;;;;;;;;;110265;1278;22145;-75
2023/03/27 10:28:57;;;;;;;5.60;1.50;;;;;;;;;;110231;1277;22183;-76
2023/03/27 10:31:36;;;;;;;7.90;2.20;;;;;;;;;;110237;1278;22128;-75
2023/03/27 10:34:31;;;;;;;7.90;1.80;;;;;;;;;;110484;1256;22129;-76
2023/03/27 10:37:32;;;;;;;6.60;1.60;;;;;;;;;;110066;1281;22110;-76
2023/03/27 10:40:42;;;;;;;8.40;2.00;;;;;;;;;;109950;1281;22151;-77
2023/03/27 10:43:21;;;;;;;7.70;1.90;;;;;;;;;;110032;1281;22377;-78
2023/03/27 10:45:54;;;;;;;7.00;1.70;;;;;;;;;;109986;1264;22232;-76
2023/03/27 10:48:30;;;;;;;6.30;1.60;;;;;;;;;;109933;1282;22421;-76
2023/03/27 10:51:00;;;;;;;3.00;0.90;;;;;;;;;;109997;1282;22127;-76
2023/03/27 10:54:05;;;;;;;6.10;1.40;;;;;;;;;;110036;1257;22284;-76
2023/03/27 10:56:57;;;;;;;5.10;1.70;;;;;;;;;;110069;1281;22417;-75
2023/03/27 10:59:32;;;;;;;8.00;1.70;;;;;;;;;;110084;1281;22158;-75
2023/03/27 11:02:03;;;;;;;10.50;2.60;;;;;;;;;;110047;1281;22247;-75
2023/03/27 11:04:36;;;;;;;13.50;3.20;;;;;;;;;;110001;1266;22205;-76
2023/03/27 11:07:11;;;;;;;10.90;3.10;;;;;;;;;;109964;1282;22144;-74
2023/03/27 11:09:52;;;;;;;11.00;3.00;;;;;;;;;;110043;1280;22964;-75
2023/03/27 11:12:20;;;;;;;7.00;2.60;;;;;;;;;;110215;1275;22622;-75
2023/03/27 11:15:13;;;;;;;11.00;2.30;;;;;;;;;;110637;1253;22158;-76
2023/03/27 11:17:50;;;;;;;9.20;2.90;;;;;;;;;;110625;1274;22201;-77
2023/03/27 11:20:32;;;;;;;6.70;2.50;;;;;;;;;;110541;1275;22128;-76
2023/03/27 11:23:24;;;;;;;6.20;1.60;;;;;;;;;;110619;1275;22413;-75
2023/03/27 11:26:22;;;;;;;12.50;3.70;;;;;;;;;;110486;1260;22108;-77
2023/03/27 11:29:09;;;;;;;11.00;4.30;;;;;;;;;;110633;1275;22265;-76
2023/03/27 11:31:44;;;;;;;10.70;3.30;;;;;;;;;;110511;1275;22107;-76
2023/03/27 11:34:13;;;;;;;15.70;5.00;;;;;;;;;;110680;1272;22124;-77
2023/03/27 11:43:54;;;;;;;6.40;1.90;;;;;;;;;;110049;1282;22153;-77
2023/03/27 11:46:50;;;;;;;10.70;3.80;;;;;;;;;;110316;1262;22241;-77
2023/03/27 11:49:26;;;;;;;9.60;3.10;;;;;;;;;;110022;1283;23124;-76
2023/03/27 11:52:12;;;;;;;10.20;2.70;;;;;;;;;;109994;1283;22148;-75
2023/03/27 11:54:44;;;;;;;10.10;3.50;;;;;;;;;;110033;1275;21909;-76
2023/03/27 11:57:24;;;;;;;8.90;3.00;;;;;;;;;;110003;1282;22180;-78
2023/03/27 12:00:04;;;;;;;8.80;3.00;;;;;;;;;;109994;1282;22136;-77
2023/03/27 12:02:54;;;;;;;8.00;2.10;;;;;;;;;;110024;1282;22177;-78
2023/03/27 12:05:47;;;;;;;8.50;2.70;;;;;;;;;;110028;1259;22260;-77
2023/03/27 12:08:26;;;;;;;10.60;2.90;;;;;;;;;;109955;1283;22135;-77
2023/03/27 12:10:55;;;;;;;10.70;2.70;;;;;;;;;;109934;1283;22905;-76
2023/03/27 12:13:36;;;;;;;6.90;2.30;;;;;;;;;;109964;1283;22140;-86
2023/03/27 12:16:07;;;;;;;8.30;2.30;;;;;;;;;;110403;1258;22171;-77
2023/03/27 12:18:52;;;;;;;10.60;2.60;;;;;;;;;;110348;1275;22108;-77
2023/03/27 12:21:42;;;;;;;8.40;1.30;;;;;;;;;;110291;1276;22896;-77
2023/03/27 12:24:17;;;;;;;7.70;1.50;;;;;;;;;;110353;1276;23327;-78
2023/03/27 12:27:25;;;;;;;6.70;1.30;;;;;;;;;;110273;1267;22138;-76
2023/03/27 12:30:58;;;;;;;6.80;2.10;;;;;;;;;;110341;1276;22131;-79
2023/03/27 12:33:12;;;;;;;4.80;1.00;;;;;;;;;;110304;1276;22123;-77
2023/03/27 12:35:47;;;;;;;5.70;1.40;;;;;;;;;;110523;1276;22820;-75
2023/03/27 12:38:21;;;;;;;9.50;1.80;;;;;;;;;;110856;1258;23217;-79
2023/03/27 12:41:00;;;;;;;10.30;1.80;;;;;;;;;;110473;1276;22103;-76
2023/03/27 12:43:40;;;;;;;5.50;1.70;;;;;;;;;;110489;1276;22326;-77
2023/03/27 12:46:33;;;;;;;5.30;1.30;;;;;;;;;;110493;1258;22149;-77
2023/03/27 12:49:06;;;;;;;4.70;1.50;;;;;;;;;;110325;1276;22097;-77
2023/03/27 12:51:40;;;;;;;7.50;1.40;;;;;;;;;;110316;1276;22770;-77
2023/03/27 12:54:27;;;;;;;6.10;1.50;;;;;;;;;;110345;1276;22107;-75
2023/03/27 12:57:03;;;;;;;3.80;1.00;;;;;;;;;;110452;1254;22525;-77
2023/03/27 12:59:35;;;;;;;8.70;1.90;;;;;;;;;;110327;1276;22946;-77
2023/03/27 13:02:02;;;;;;;8.20;1.30;;;;;;;;;;110494;1276;22990;-76
2023/03/27 13:04:47;;;;;;;4.10;1.10;;;;;;;;;;110566;1276;22098;-77
2023/03/27 13:07:26;;;;;;;5.70;1.10;;;;;;;;;;110536;1258;22823;-77
2023/03/27 13:10:17;;;;;;;3.70;1.00;;;;;;;;;;110363;1276;22339;-77
2023/03/27 13:12:54;;;;;;;4.90;0.90;;;;;;;;;;110289;1276;22166;-78
2023/03/27 13:15:37;;;;;;;5.50;1.00;;;;;;;;;;110296;1276;22134;-77
2023/03/27 13:18:27;;;;;;;3.10;0.70;;;;;;;;;;110594;1256;22877;-78
2023/03/27 13:20:58;;;;;;;4.80;1.20;;;;;;;;;;110300;1277;22113;-78
2023/03/27 13:23:46;;;;;;;4.90;1.00;;;;;;;;;;110253;1277;22161;-78
2023/03/27 13:26:26;;;;;;;1.70;0.60;;;;;;;;;;110464;1277;22922;-77
2023/03/27 13:28:57;;;;;;;4.00;1.00;;;;;;;;;;110651;1259;22727;-79
2023/03/27 13:31:40;;;;;;;3.20;0.80;;;;;;;;;;110473;1277;22217;-78
2023/03/27 13:34:25;;;;;;;5.80;1.00;;;;;;;;;;110430;1277;22098;-75
2023/03/27 13:36:53;;;;;;;5.10;1.00;;;;;;;;;;110284;1277;22752;-76
2023/03/27 13:39:23;;;;;;;5.40;1.00;;;;;;;;;;110885;1253;22359;-78
2023/03/27 13:42:01;;;;;;;3.60;0.80;;;;;;;;;;110449;1277;21717;-77
2023/03/27 13:44:35;;;;;;;3.30;0.90;;;;;;;;;;110289;1277;22086;-77
2023/03/27 13:47:24;;;;;;;9.10;2.00;;;;;;;;;;110311;1277;22773;-77
2023/03/27 13:49:54;;;;;;;3.70;0.90;;;;;;;;;;110549;1260;22091;-76
2023/03/27 13:52:27;;;;;;;5.50;1.10;;;;;;;;;;110447;1277;22140;-75
2023/03/27 13:55:18;;;;;;;4.40;1.00;;;;;;;;;;110356;1277;22222;-75
2023/03/27 13:58:04;;;;;;;4.20;1.10;;;;;;;;;;110414;1257;22184;-78
2023/03/27 14:00:34;;;;;;;4.60;1.20;;;;;;;;;;110320;1277;22142;-77
2023/03/27 14:03:06;;;;;;;7.40;1.50;;;;;;;;;;110428;1277;22098;-79
2023/03/27 14:05:56;;;;;;;5.30;1.50;;;;;;;;;;110242;1277;22202;-78
2023/03/27 14:08:23;;;;;;;8.40;1.60;;;;;;;;;;110437;1258;22143;-79
2023/03/27 14:11:31;;;;;;;7.70;2.50;;;;;;;;;;110229;1277;22121;-78
2023/03/27 14:14:08;;;;;;;11.50;4.60;;;;;;;;;;110316;1277;22164;-78
2023/03/27 14:17:07;;;;;;;13.70;5.30;;;;;;;;;;110323;1277;22149;-77
2023/03/27 14:19:56;;;;;;;8.60;3.20;;;;;;;;;;110028;1263;22279;-78
2023/03/27 14:22:26;;;;;;;4.50;1.30;;;;;;;;;;110023;1282;23214;-79
2023/03/27 14:24:55;;;;;;;3.30;1.00;;;;;;;;;;110021;1282;22269;-78
2023/03/27 14:27:48;;;;;;;3.60;1.20;;;;;;;;;;110034;1282;22025;-78
2023/03/27 14:30:21;;;;;;;3.60;1.10;;;;;;;;;;110213;1265;22171;-77
2023/03/27 14:32:55;;;;;;;7.10;1.90;;;;;;;;;;110002;1281;22157;-76
2023/03/27 14:35:22;;;;;;;5.50;1.50;;;;;;;;;;109989;1284;22145;-79
2023/03/27 14:37:59;;;;;;;4.40;0.80;;;;;;;;;;109902;1284;22143;-75
2023/03/27 14:40:38;;;;;;;6.50;1.50;;;;;;;;;;110302;1265;22290;-76
2023/03/27 14:43:11;;;;;;;12.30;2.90;;;;;;;;;;109987;1282;22151;-76
2023/03/27 14:45:39;;;;;;;13.80;3.40;;;;;;;;;;110003;1282;22190;-77
2023/03/27 14:48:08;;;;;;;19.40;6.00;;;;;;;;;;109977;1282;22156;-78
2023/03/27 14:50:45;;;;;;;9.20;1.90;;;;;;;;;;110217;1265;22175;-79
2023/03/27 14:53:15;;;;;;;9.70;2.40;;;;;;;;;;109990;1284;22809;-78
2023/03/27 15:06:27;;;;;;;5.30;1.10;;;;;;;;;;110029;1282;22139;-78
2023/03/27 15:09:04;;;;;;;8.30;2.20;;;;;;;;;;109986;1282;23193;-77
2023/03/27 15:12:10;;;;;;;5.40;1.40;;;;;;;;;;109872;1269;22185;-79
2023/03/27 15:14:38;;;;;;;7.10;1.60;;;;;;;;;;109757;1286;22902;-78
2023/03/27 15:17:07;;;;;;;5.60;1.10;;;;;;;;;;109769;1286;22156;-78
2023/03/27 15:20:13;;;;;;;5.90;1.10;;;;;;;;;;109750;1287;22161;-77
2023/03/27 15:22:43;;;;;;;8.50;1.70;;;;;;;;;;109688;1271;22330;-75
2023/03/27 15:25:16;;;;;;;7.70;1.90;;;;;;;;;;109758;1288;22180;-78
2023/03/27 15:27:51;;;;;;;5.30;1.30;;;;;;;;;;109595;1287;22907;-78
2023/03/27 15:30:24;;;;;;;6.60;2.20;;;;;;;;;;109750;1287;22541;-77
2023/03/27 15:32:55;;;;;;;7.70;2.90;;;;;;;;;;109823;1268;22159;-77
2023/03/27 15:35:26;;;;;;;6.50;2.30;;;;;;;;;;109811;1286;22109;-78
2023/03/27 15:37:55;;;;;;;8.00;2.20;;;;;;;;;;109817;1287;22133;-77
2023/03/27 15:40:37;;;;;;;8.00;1.80;;;;;;;;;;109936;1284;22155;-76
2023/03/27 15:43:17;;;;;;;6.90;1.50;;;;;;;;;;109904;1267;22905;-77
2023/03/27 15:46:03;;;;;;;7.90;1.70;;;;;;;;;;110101;1280;22128;-78
2023/03/27 15:48:35;;;;;;;8.50;3.00;;;;;;;;;;110208;1280;22099;-77
2023/03/27 15:51:04;;;;;;;9.50;2.80;;;;;;;;;;110066;1280;22400;-79
2023/03/27 15:53:34;;;;;;;9.30;2.40;;;;;;;;;;110061;1265;22909;-78
2023/03/27 15:56:03;;;;;;;7.30;1.80;;;;;;;;;;110242;1280;22089;-78
2023/03/27 15:58:39;;;;;;;10.50;2.90;;;;;;;;;;110142;1280;22133;-78
2023/03/27 16:01:07;;;;;;;7.20;1.80;;;;;;;;;;110227;1280;22107;-81
2023/03/27 16:03:34;;;;;;;6.80;1.60;;;;;;;;;;110452;1266;22134;-79
2023/03/27 16:06:02;;;;;;;6.90;1.70;;;;;;;;;;110194;1280;22112;-80
2023/03/27 16:08:33;;;;;;;5.70;1.70;;;;;;;;;;110071;1280;22103;-78
2023/03/27 16:11:01;;;;;;;10.20;2.50;;;;;;;;;;110080;1280;22117;-78
2023/03/27 16:13:33;;;;;;;9.40;2.70;;;;;;;;;;110351;1265;23052;-78
2023/03/27 16:16:01;;;;;;;7.90;1.70;;;;;;;;;;110064;1280;22127;-79
2023/03/27 16:18:32;;;;;;;10.00;3.40;;;;;;;;;;110192;1280;21939;-79
2023/03/27 16:21:12;;;;;;;8.10;2.20;;;;;;;;;;110081;1280;22095;-79
2023/03/27 16:23:41;;;;;;;9.00;3.00;;;;;;;;;;110391;1272;22856;-79
2023/03/27 16:26:13;;;;;;;10.10;2.70;;;;;;;;;;110161;1280;22082;-79
2023/03/27 16:28:42;;;;;;;6.60;1.60;;;;;;;;;;110099;1280;22126;-79
2023/03/27 16:31:13;;;;;;;6.60;1.80;;;;;;;;;;110144;1280;22131;-79
2023/03/27 16:33:44;;;;;;;6.60;2.20;;;;;;;;;;110295;1261;22066;-79
2023/03/27 16:36:14;;;;;;;9.20;2.70;;;;;;;;;;110080;1281;22831;-79
2023/03/27 16:38:43;;;;;;;29.40;9.90;;;;;;;;;;110083;1280;22161;-78
2023/03/27 16:41:15;;;;;;;30.90;11.40;;;;;;;;;;110067;1280;22120;-78
2023/03/27 16:43:45;;;;;;;38.50;12.60;;;;;;;;;;110258;1263;22108;-76
2023/03/27 16:46:20;;;;;;;15.50;4.90;;;;;;;;;;110145;1280;22608;-79
2023/03/27 16:48:51;;;;;;;15.50;5.60;;;;;;;;;;110068;1280;22160;-78
2023/03/27 16:51:21;;;;;;;10.50;3.80;;;;;;;;;;110133;1280;22892;-78
2023/03/27 16:53:51;;;;;;;13.90;4.90;;;;;;;;;;110235;1272;22099;-78
2023/03/27 16:56:21;;;;;;;15.60;5.00;;;;;;;;;;110078;1280;23074;-78
2023/03/27 16:58:51;;;;;;;19.30;8.10;;;;;;;;;;110029;1280;22098;-78
2023/03/27 17:01:22;;;;;;;18.40;8.20;;;;;;;;;;110069;1281;22107;-78
2023/03/27 17:03:51;;;;;;;17.90;7.70;;;;;;;;;;110183;1263;22125;-79
2023/03/27 17:06:21;;;;;;;13.10;5.40;;;;;;;;;;110129;1281;22140;-78
2023/03/27 17:08:54;;;;;;;22.50;8.70;;;;;;;;;;110144;1281;22913;-79
2023/03/27 17:11:24;;;;;;;20.90;6.90;;;;;;;;;;110142;1274;21666;-78
2023/03/27 17:13:54;;;;;;;9.80;3.80;;;;;;;;;;110301;1273;22110;-78
2023/03/27 17:16:23;;;;;;;10.10;3.20;;;;;;;;;;110064;1281;22321;-78
2023/03/27 17:26:27;;;;;;;10.80;3.10;;;;;;;;;;104596;1303;548011;-81
2023/03/27 17:29:04;;;;;;;9.50;2.30;;;;;;;;;;106347;1286;22514;-80
2023/03/27 17:32:01;;;;;;;8.40;2.30;;;;;;;;;;106309;1286;22530;-79
2023/03/27 17:34:38;;;;;;;7.20;1.90;;;;;;;;;;106272;1286;22773;-84
2023/03/27 17:37:28;;;;;;;8.80;2.60;;;;;;;;;;106314;1279;24752;-80
2023/03/27 17:46:30;;;;;;;10.10;3.90;;;;;;;;;;103648;1295;546004;-80
2023/03/27 17:49:05;;;;;;;14.50;4.10;;;;;;;;;;105999;1288;25526;-82
2023/03/27 17:51:42;;;;;;;16.10;5.00;;;;;;;;;;106018;1288;25473;-82
2023/03/27 17:54:12;;;;;;;34.60;11.60;;;;;;;;;;106129;1288;22653;-82
2023/03/27 17:56:51;;;;;;;74.00;22.00;;;;;;;;;;106039;1269;22660;-80
2023/03/27 17:59:19;;;;;;;37.00;11.70;;;;;;;;;;102064;1285;5439941;-83
2023/03/27 18:02:03;;;;;;;66.40;18.60;;;;;;;;;;106313;1285;22527;-84
2023/03/27 18:04:40;;;;;;;38.20;11.60;;;;;;;;;;109919;1284;22097;-78
2023/03/27 18:07:07;;;;;;;34.20;10.60;;;;;;;;;;110019;1266;22264;-78
2023/03/27 18:09:34;;;;;;;66.70;21.90;;;;;;;;;;109899;1285;22133;-78
2023/03/27 18:12:02;;;;;;;55.70;16.40;;;;;;;;;;109894;1285;22174;-78
2023/03/27 18:14:29;;;;;;;73.40;24.10;;;;;;;;;;109954;1285;22135;-78
2023/03/27 18:16:56;;;;;;;33.70;13.30;;;;;;;;;;109982;1266;22454;-78
2023/03/27 18:19:27;;;;;;;37.80;13.80;;;;;;;;;;109868;1286;22230;-77
2023/03/27 18:21:54;;;;;;;43.20;16.50;;;;;;;;;;109870;1286;22726;-78
2023/03/27 18:24:21;;;;;;;22.80;7.50;;;;;;;;;;109752;1286;22149;-79
2023/03/27 18:26:49;;;;;;;42.30;15.70;;;;;;;;;;109953;1269;22755;-79
2023/03/27 18:29:16;;;;;;;22.10;7.60;;;;;;;;;;109873;1286;22160;-79
2023/03/27 18:31:43;;;;;;;27.80;11.90;;;;;;;;;;109854;1286;22425;-79
2023/03/27 18:34:13;;;;;;;20.60;7.20;;;;;;;;;;109845;1286;22001;-81
2023/03/27 18:36:41;;;;;;;13.70;4.60;;;;;;;;;;109907;1268;22194;-78
2023/03/27 18:39:08;;;;;;;19.60;7.00;;;;;;;;;;109844;1286;23086;-79
2023/03/27 18:41:38;;;;;;;21.00;7.60;;;;;;;;;;110404;1277;22175;-78
2023/03/27 18:44:09;;;;;;;15.70;5.30;;;;;;;;;;110183;1277;22433;-79